Terminal Aerodrome Forecast
Issued by NWS

Home | Current Version | Previous Version | Text Only | Print | Product List | Glossary Off
Versions: 1 2 3 4 5 6 7 8 9 10 11 12 13 14 15 16 17

000
FTUS43 KMPX 252343
TAFRNH
TAF
KRNH 252343Z 2600/2624 VRB03KT P6SM SCT025 OVC100
      TEMPO 2600/2602 BKN025
     FM260600 18006KT P6SM SCT020 OVC060
     FM260900 18009KT 2SM -SN OVC015 PROB30 2612/2615 4SM -FZDZ BR
      OVC010
     FM261500 24007KT 5SM -SN BR OVC015=

USA.gov is the U.S. government's official web portal to all federal, state and local government web resources and services.